sensor_id;sensor_type;location;lat;lon;timestamp;P1;durP1;ratioP1;P2;durP2;ratioP2
16878;SDS011;8556;52.218;9.884;2022-10-20T00:00:13;6.13;;;4.37;;
16878;SDS011;8556;52.218;9.884;2022-10-20T00:02:40;11.33;;;4.93;;
16878;SDS011;8556;52.218;9.884;2022-10-20T00:05:07;6.83;;;4.37;;
16878;SDS011;8556;52.218;9.884;2022-10-20T00:07:34;6.20;;;4.53;;
16878;SDS011;8556;52.218;9.884;2022-10-20T00:10:01;7.80;;;5.10;;
16878;SDS011;8556;52.218;9.884;2022-10-20T00:12:29;7.23;;;4.60;;
16878;SDS011;8556;52.218;9.884;2022-10-20T00:14:55;7.00;;;4.77;;
16878;SDS011;8556;52.218;9.884;2022-10-20T00:17:22;9.37;;;5.27;;
16878;SDS011;8556;52.218;9.884;2022-10-20T00:19:49;8.03;;;4.63;;
16878;SDS011;8556;52.218;9.884;2022-10-20T00:22:16;7.70;;;4.70;;
16878;SDS011;8556;52.218;9.884;2022-10-20T00:24:43;7.33;;;4.43;;
16878;SDS011;8556;52.218;9.884;2022-10-20T00:27:09;10.07;;;4.60;;
16878;SDS011;8556;52.218;9.884;2022-10-20T00:29:38;5.40;;;3.90;;
16878;SDS011;8556;52.218;9.884;2022-10-20T00:32:04;7.10;;;4.53;;
16878;SDS011;8556;52.218;9.884;2022-10-20T00:34:31;8.07;;;5.10;;
16878;SDS011;8556;52.218;9.884;2022-10-20T00:36:58;8.27;;;4.90;;
16878;SDS011;8556;52.218;9.884;2022-10-20T00:39:25;7.27;;;4.87;;
16878;SDS011;8556;52.218;9.884;2022-10-20T00:41:52;6.53;;;4.53;;
16878;SDS011;8556;52.218;9.884;2022-10-20T00:47:15;8.53;;;5.03;;
16878;SDS011;8556;52.218;9.884;2022-10-20T00:49:46;7.87;;;5.07;;
16878;SDS011;8556;52.218;9.884;2022-10-20T00:52:15;6.87;;;5.10;;
16878;SDS011;8556;52.218;9.884;2022-10-20T00:54:44;6.90;;;5.33;;
16878;SDS011;8556;52.218;9.884;2022-10-20T00:57:12;8.50;;;4.73;;
16878;SDS011;8556;52.218;9.884;2022-10-20T00:59:39;7.27;;;5.20;;
16878;SDS011;8556;52.218;9.884;2022-10-20T01:02:08;9.23;;;4.93;;
16878;SDS011;8556;52.218;9.884;2022-10-20T01:04:35;6.90;;;5.00;;
16878;SDS011;8556;52.218;9.884;2022-10-20T01:07:03;5.40;;;4.70;;
16878;SDS011;8556;52.218;9.884;2022-10-20T01:09:30;6.63;;;4.73;;
16878;SDS011;8556;52.218;9.884;2022-10-20T01:12:00;8.53;;;5.30;;
16878;SDS011;8556;52.218;9.884;2022-10-20T01:14:34;8.73;;;5.67;;
16878;SDS011;8556;52.218;9.884;2022-10-20T01:17:12;6.77;;;4.80;;
16878;SDS011;8556;52.218;9.884;2022-10-20T01:20:02;9.23;;;6.00;;
16878;SDS011;8556;52.218;9.884;2022-10-20T01:22:57;6.70;;;4.90;;
16878;SDS011;8556;52.218;9.884;2022-10-20T01:25:40;8.77;;;5.53;;
16878;SDS011;8556;52.218;9.884;2022-10-20T01:28:23;6.50;;;4.83;;
16878;SDS011;8556;52.218;9.884;2022-10-20T01:30:57;8.87;;;5.50;;
16878;SDS011;8556;52.218;9.884;2022-10-20T01:33:29;8.37;;;5.23;;
16878;SDS011;8556;52.218;9.884;2022-10-20T01:36:01;4.97;;;4.30;;
16878;SDS011;8556;52.218;9.884;2022-10-20T01:38:33;6.93;;;4.40;;
16878;SDS011;8556;52.218;9.884;2022-10-20T01:41:07;7.50;;;5.13;;
16878;SDS011;8556;52.218;9.884;2022-10-20T01:43:39;5.90;;;4.93;;
16878;SDS011;8556;52.218;9.884;2022-10-20T01:46:09;4.57;;;3.93;;
16878;SDS011;8556;52.218;9.884;2022-10-20T01:48:37;7.07;;;4.37;;
16878;SDS011;8556;52.218;9.884;2022-10-20T01:51:05;5.93;;;4.47;;
16878;SDS011;8556;52.218;9.884;2022-10-20T01:53:33;5.70;;;4.37;;
16878;SDS011;8556;52.218;9.884;2022-10-20T01:56:00;8.07;;;4.77;;
16878;SDS011;8556;52.218;9.884;2022-10-20T01:58:38;8.83;;;5.10;;
16878;SDS011;8556;52.218;9.884;2022-10-20T02:01:32;8.90;;;5.20;;
16878;SDS011;8556;52.218;9.884;2022-10-20T02:04:13;7.07;;;4.80;;
16878;SDS011;8556;52.218;9.884;2022-10-20T02:06:44;11.33;;;5.13;;
16878;SDS011;8556;52.218;9.884;2022-10-20T02:09:16;9.20;;;5.30;;
16878;SDS011;8556;52.218;9.884;2022-10-20T02:11:50;8.67;;;5.10;;
16878;SDS011;8556;52.218;9.884;2022-10-20T02:14:21;7.17;;;5.27;;
16878;SDS011;8556;52.218;9.884;2022-10-20T02:16:51;10.07;;;6.13;;
16878;SDS011;8556;52.218;9.884;2022-10-20T02:19:22;8.40;;;6.10;;
16878;SDS011;8556;52.218;9.884;2022-10-20T02:21:51;9.13;;;6.17;;
16878;SDS011;8556;52.218;9.884;2022-10-20T02:24:22;9.50;;;5.80;;
16878;SDS011;8556;52.218;9.884;2022-10-20T02:26:53;10.70;;;5.60;;
16878;SDS011;8556;52.218;9.884;2022-10-20T02:29:24;9.90;;;5.83;;
16878;SDS011;8556;52.218;9.884;2022-10-20T02:31:55;10.50;;;5.50;;
16878;SDS011;8556;52.218;9.884;2022-10-20T02:34:24;8.50;;;5.67;;
16878;SDS011;8556;52.218;9.884;2022-10-20T02:36:53;7.07;;;4.73;;
16878;SDS011;8556;52.218;9.884;2022-10-20T02:39:21;9.43;;;5.13;;
16878;SDS011;8556;52.218;9.884;2022-10-20T02:41:48;7.60;;;5.40;;
16878;SDS011;8556;52.218;9.884;2022-10-20T02:44:15;7.20;;;4.87;;
16878;SDS011;8556;52.218;9.884;2022-10-20T02:46:42;6.60;;;4.83;;
16878;SDS011;8556;52.218;9.884;2022-10-20T02:49:10;6.17;;;4.70;;
16878;SDS011;8556;52.218;9.884;2022-10-20T02:51:37;5.83;;;4.37;;
16878;SDS011;8556;52.218;9.884;2022-10-20T02:54:04;7.50;;;4.60;;
16878;SDS011;8556;52.218;9.884;2022-10-20T02:56:31;6.23;;;4.40;;
16878;SDS011;8556;52.218;9.884;2022-10-20T02:58:57;7.73;;;4.70;;
16878;SDS011;8556;52.218;9.884;2022-10-20T03:01:24;8.13;;;4.33;;
16878;SDS011;8556;52.218;9.884;2022-10-20T03:03:51;7.13;;;4.97;;
16878;SDS011;8556;52.218;9.884;2022-10-20T03:06:24;8.90;;;5.43;;
16878;SDS011;8556;52.218;9.884;2022-10-20T03:08:51;7.43;;;4.47;;
16878;SDS011;8556;52.218;9.884;2022-10-20T03:11:18;6.80;;;5.23;;
16878;SDS011;8556;52.218;9.884;2022-10-20T03:13:44;7.67;;;4.67;;
16878;SDS011;8556;52.218;9.884;2022-10-20T03:16:11;9.93;;;5.57;;
16878;SDS011;8556;52.218;9.884;2022-10-20T03:18:38;8.07;;;5.27;;
16878;SDS011;8556;52.218;9.884;2022-10-20T03:21:05;6.63;;;4.80;;
16878;SDS011;8556;52.218;9.884;2022-10-20T03:23:33;8.10;;;4.63;;
16878;SDS011;8556;52.218;9.884;2022-10-20T03:26:00;9.20;;;4.60;;
16878;SDS011;8556;52.218;9.884;2022-10-20T03:28:27;5.43;;;4.07;;
16878;SDS011;8556;52.218;9.884;2022-10-20T03:30:54;7.13;;;4.87;;
16878;SDS011;8556;52.218;9.884;2022-10-20T03:33:21;8.10;;;5.23;;
16878;SDS011;8556;52.218;9.884;2022-10-20T03:35:48;9.43;;;5.93;;
16878;SDS011;8556;52.218;9.884;2022-10-20T03:38:15;9.27;;;5.73;;
16878;SDS011;8556;52.218;9.884;2022-10-20T03:40:43;11.40;;;6.27;;
16878;SDS011;8556;52.218;9.884;2022-10-20T03:43:10;8.27;;;5.70;;
16878;SDS011;8556;52.218;9.884;2022-10-20T03:45:39;7.97;;;5.80;;
16878;SDS011;8556;52.218;9.884;2022-10-20T03:48:06;7.40;;;5.20;;
16878;SDS011;8556;52.218;9.884;2022-10-20T03:50:33;9.37;;;5.60;;
16878;SDS011;8556;52.218;9.884;2022-10-20T03:53:00;9.93;;;5.80;;
16878;SDS011;8556;52.218;9.884;2022-10-20T03:55:26;7.07;;;5.77;;
16878;SDS011;8556;52.218;9.884;2022-10-20T03:57:54;10.30;;;5.50;;
16878;SDS011;8556;52.218;9.884;2022-10-20T04:00:21;11.23;;;6.33;;
16878;SDS011;8556;52.218;9.884;2022-10-20T04:02:48;7.13;;;5.10;;
16878;SDS011;8556;52.218;9.884;2022-10-20T04:05:16;8.27;;;5.17;;
16878;SDS011;8556;52.218;9.884;2022-10-20T04:07:45;10.40;;;5.53;;
16878;SDS011;8556;52.218;9.884;2022-10-20T04:10:13;6.87;;;5.27;;
16878;SDS011;8556;52.218;9.884;2022-10-20T04:12:41;8.93;;;5.80;;
16878;SDS011;8556;52.218;9.884;2022-10-20T04:15:10;6.80;;;4.87;;
16878;SDS011;8556;52.218;9.884;2022-10-20T04:17:37;6.97;;;5.00;;
16878;SDS011;8556;52.218;9.884;2022-10-20T04:20:04;6.50;;;5.10;;
16878;SDS011;8556;52.218;9.884;2022-10-20T04:22:33;6.23;;;4.90;;
16878;SDS011;8556;52.218;9.884;2022-10-20T04:25:00;5.73;;;4.50;;
16878;SDS011;8556;52.218;9.884;2022-10-20T04:27:26;6.07;;;4.60;;
16878;SDS011;8556;52.218;9.884;2022-10-20T04:29:54;6.70;;;4.20;;
16878;SDS011;8556;52.218;9.884;2022-10-20T04:32:22;8.70;;;4.60;;
16878;SDS011;8556;52.218;9.884;2022-10-20T04:34:49;12.30;;;11.17;;
16878;SDS011;8556;52.218;9.884;2022-10-20T04:37:16;5.00;;;4.47;;
16878;SDS011;8556;52.218;9.884;2022-10-20T04:39:42;10.10;;;5.30;;
16878;SDS011;8556;52.218;9.884;2022-10-20T04:42:09;7.73;;;4.77;;
16878;SDS011;8556;52.218;9.884;2022-10-20T04:44:36;7.70;;;4.60;;
16878;SDS011;8556;52.218;9.884;2022-10-20T04:47:03;6.77;;;4.90;;
16878;SDS011;8556;52.218;9.884;2022-10-20T04:49:31;6.23;;;4.90;;
16878;SDS011;8556;52.218;9.884;2022-10-20T04:51:58;5.60;;;4.60;;
16878;SDS011;8556;52.218;9.884;2022-10-20T04:54:24;10.80;;;6.80;;
16878;SDS011;8556;52.218;9.884;2022-10-20T04:56:51;13.37;;;7.17;;
16878;SDS011;8556;52.218;9.884;2022-10-20T04:59:18;11.33;;;6.20;;
16878;SDS011;8556;52.218;9.884;2022-10-20T05:01:45;5.90;;;4.73;;
16878;SDS011;8556;52.218;9.884;2022-10-20T05:04:12;8.67;;;5.53;;
16878;SDS011;8556;52.218;9.884;2022-10-20T05:06:46;9.33;;;4.83;;
16878;SDS011;8556;52.218;9.884;2022-10-20T05:09:13;7.03;;;4.50;;
16878;SDS011;8556;52.218;9.884;2022-10-20T05:11:40;8.40;;;4.53;;
16878;SDS011;8556;52.218;9.884;2022-10-20T05:14:08;8.73;;;5.10;;
16878;SDS011;8556;52.218;9.884;2022-10-20T05:16:34;9.87;;;6.80;;
16878;SDS011;8556;52.218;9.884;2022-10-20T05:19:01;6.03;;;4.50;;
16878;SDS011;8556;52.218;9.884;2022-10-20T05:21:28;7.17;;;4.70;;
16878;SDS011;8556;52.218;9.884;2022-10-20T05:23:58;6.83;;;4.30;;
16878;SDS011;8556;52.218;9.884;2022-10-20T05:26:27;8.90;;;5.13;;
16878;SDS011;8556;52.218;9.884;2022-10-20T05:28:58;8.80;;;4.83;;
16878;SDS011;8556;52.218;9.884;2022-10-20T05:31:25;10.20;;;5.27;;
16878;SDS011;8556;52.218;9.884;2022-10-20T05:33:53;12.40;;;5.63;;
16878;SDS011;8556;52.218;9.884;2022-10-20T05:36:21;7.00;;;4.40;;
16878;SDS011;8556;52.218;9.884;2022-10-20T05:38:49;6.33;;;4.17;;
16878;SDS011;8556;52.218;9.884;2022-10-20T05:41:19;7.67;;;4.60;;
16878;SDS011;8556;52.218;9.884;2022-10-20T05:43:47;10.80;;;5.37;;
16878;SDS011;8556;52.218;9.884;2022-10-20T05:46:15;9.30;;;5.57;;
16878;SDS011;8556;52.218;9.884;2022-10-20T05:48:42;10.47;;;5.30;;
16878;SDS011;8556;52.218;9.884;2022-10-20T05:51:09;8.47;;;4.97;;
16878;SDS011;8556;52.218;9.884;2022-10-20T05:53:39;8.17;;;4.80;;
16878;SDS011;8556;52.218;9.884;2022-10-20T05:56:07;8.10;;;5.40;;
16878;SDS011;8556;52.218;9.884;2022-10-20T05:58:38;9.57;;;5.97;;
16878;SDS011;8556;52.218;9.884;2022-10-20T06:01:06;11.63;;;5.97;;
16878;SDS011;8556;52.218;9.884;2022-10-20T06:03:34;9.90;;;5.50;;
16878;SDS011;8556;52.218;9.884;2022-10-20T06:06:01;7.97;;;4.83;;
16878;SDS011;8556;52.218;9.884;2022-10-20T06:08:28;13.77;;;6.20;;
16878;SDS011;8556;52.218;9.884;2022-10-20T06:10:56;7.03;;;5.20;;
16878;SDS011;8556;52.218;9.884;2022-10-20T06:13:27;10.37;;;5.90;;
16878;SDS011;8556;52.218;9.884;2022-10-20T06:15:59;8.70;;;5.23;;
16878;SDS011;8556;52.218;9.884;2022-10-20T06:18:26;7.20;;;5.40;;
16878;SDS011;8556;52.218;9.884;2022-10-20T06:20:57;10.07;;;6.10;;
16878;SDS011;8556;52.218;9.884;2022-10-20T06:23:25;7.37;;;5.40;;
16878;SDS011;8556;52.218;9.884;2022-10-20T06:25:51;9.73;;;5.53;;
16878;SDS011;8556;52.218;9.884;2022-10-20T06:28:18;8.40;;;5.43;;
16878;SDS011;8556;52.218;9.884;2022-10-20T06:30:45;8.97;;;5.87;;
16878;SDS011;8556;52.218;9.884;2022-10-20T06:33:14;7.60;;;5.20;;
16878;SDS011;8556;52.218;9.884;2022-10-20T06:35:41;11.17;;;5.80;;
16878;SDS011;8556;52.218;9.884;2022-10-20T06:38:07;10.87;;;5.57;;
16878;SDS011;8556;52.218;9.884;2022-10-20T06:40:34;7.93;;;5.40;;
16878;SDS011;8556;52.218;9.884;2022-10-20T06:43:01;7.63;;;5.13;;
16878;SDS011;8556;52.218;9.884;2022-10-20T06:45:28;9.67;;;5.60;;
16878;SDS011;8556;52.218;9.884;2022-10-20T06:47:54;7.50;;;5.20;;
16878;SDS011;8556;52.218;9.884;2022-10-20T06:50:23;10.73;;;6.20;;
16878;SDS011;8556;52.218;9.884;2022-10-20T06:52:49;8.47;;;5.47;;
16878;SDS011;8556;52.218;9.884;2022-10-20T06:55:16;8.60;;;5.43;;
16878;SDS011;8556;52.218;9.884;2022-10-20T06:57:43;7.80;;;5.70;;
16878;SDS011;8556;52.218;9.884;2022-10-20T07:00:10;11.07;;;6.43;;
16878;SDS011;8556;52.218;9.884;2022-10-20T07:02:37;11.13;;;7.07;;
16878;SDS011;8556;52.218;9.884;2022-10-20T07:05:04;9.33;;;5.83;;
16878;SDS011;8556;52.218;9.884;2022-10-20T07:07:33;10.23;;;5.70;;
16878;SDS011;8556;52.218;9.884;2022-10-20T07:10:00;10.80;;;6.13;;
16878;SDS011;8556;52.218;9.884;2022-10-20T07:12:27;11.37;;;7.23;;
16878;SDS011;8556;52.218;9.884;2022-10-20T07:14:53;10.43;;;6.17;;
16878;SDS011;8556;52.218;9.884;2022-10-20T07:17:20;9.40;;;6.73;;
16878;SDS011;8556;52.218;9.884;2022-10-20T07:19:47;12.03;;;7.50;;
16878;SDS011;8556;52.218;9.884;2022-10-20T07:22:14;12.53;;;7.10;;
16878;SDS011;8556;52.218;9.884;2022-10-20T07:24:42;11.80;;;6.70;;
16878;SDS011;8556;52.218;9.884;2022-10-20T07:27:08;13.17;;;7.60;;
16878;SDS011;8556;52.218;9.884;2022-10-20T07:29:35;13.80;;;8.40;;
16878;SDS011;8556;52.218;9.884;2022-10-20T07:32:03;14.07;;;7.50;;
16878;SDS011;8556;52.218;9.884;2022-10-20T07:34:29;13.30;;;6.90;;
16878;SDS011;8556;52.218;9.884;2022-10-20T07:36:56;12.77;;;7.33;;
16878;SDS011;8556;52.218;9.884;2022-10-20T07:39:23;15.40;;;8.00;;
16878;SDS011;8556;52.218;9.884;2022-10-20T07:41:52;13.07;;;7.77;;
16878;SDS011;8556;52.218;9.884;2022-10-20T07:44:19;11.37;;;6.77;;
16878;SDS011;8556;52.218;9.884;2022-10-20T07:46:46;14.27;;;8.07;;
16878;SDS011;8556;52.218;9.884;2022-10-20T07:49:13;11.10;;;7.30;;
16878;SDS011;8556;52.218;9.884;2022-10-20T07:51:40;11.23;;;6.77;;
16878;SDS011;8556;52.218;9.884;2022-10-20T07:54:07;12.97;;;7.50;;
16878;SDS011;8556;52.218;9.884;2022-10-20T07:56:36;13.03;;;7.10;;
16878;SDS011;8556;52.218;9.884;2022-10-20T07:59:06;13.13;;;7.23;;
16878;SDS011;8556;52.218;9.884;2022-10-20T08:01:33;13.20;;;7.07;;
16878;SDS011;8556;52.218;9.884;2022-10-20T08:04:01;12.40;;;7.00;;
16878;SDS011;8556;52.218;9.884;2022-10-20T08:06:27;12.47;;;7.13;;
16878;SDS011;8556;52.218;9.884;2022-10-20T08:08:54;13.10;;;7.20;;
16878;SDS011;8556;52.218;9.884;2022-10-20T08:11:21;12.23;;;7.17;;
16878;SDS011;8556;52.218;9.884;2022-10-20T08:13:48;13.73;;;7.03;;
16878;SDS011;8556;52.218;9.884;2022-10-20T08:16:17;13.10;;;8.17;;
16878;SDS011;8556;52.218;9.884;2022-10-20T08:18:44;11.03;;;6.77;;
16878;SDS011;8556;52.218;9.884;2022-10-20T08:21:11;15.10;;;7.50;;
16878;SDS011;8556;52.218;9.884;2022-10-20T08:23:40;12.77;;;6.70;;
16878;SDS011;8556;52.218;9.884;2022-10-20T08:26:08;10.50;;;7.00;;
16878;SDS011;8556;52.218;9.884;2022-10-20T08:28:36;11.80;;;6.60;;
16878;SDS011;8556;52.218;9.884;2022-10-20T08:31:03;12.23;;;7.00;;
16878;SDS011;8556;52.218;9.884;2022-10-20T08:33:32;16.17;;;7.90;;
16878;SDS011;8556;52.218;9.884;2022-10-20T08:36:00;13.80;;;7.47;;
16878;SDS011;8556;52.218;9.884;2022-10-20T08:38:28;10.87;;;7.30;;
16878;SDS011;8556;52.218;9.884;2022-10-20T08:40:54;14.17;;;7.40;;
16878;SDS011;8556;52.218;9.884;2022-10-20T08:43:22;11.67;;;7.37;;
16878;SDS011;8556;52.218;9.884;2022-10-20T08:45:50;13.30;;;7.17;;
16878;SDS011;8556;52.218;9.884;2022-10-20T08:48:18;9.67;;;7.00;;
16878;SDS011;8556;52.218;9.884;2022-10-20T08:50:48;14.47;;;8.10;;
16878;SDS011;8556;52.218;9.884;2022-10-20T08:53:16;14.07;;;7.30;;
16878;SDS011;8556;52.218;9.884;2022-10-20T08:55:44;11.50;;;7.30;;
16878;SDS011;8556;52.218;9.884;2022-10-20T08:58:13;11.50;;;7.50;;
16878;SDS011;8556;52.218;9.884;2022-10-20T09:00:41;12.77;;;8.10;;
16878;SDS011;8556;52.218;9.884;2022-10-20T09:03:12;14.47;;;8.37;;
16878;SDS011;8556;52.218;9.884;2022-10-20T09:05:44;17.60;;;8.30;;
16878;SDS011;8556;52.218;9.884;2022-10-20T09:08:15;12.33;;;7.97;;
16878;SDS011;8556;52.218;9.884;2022-10-20T09:10:44;13.07;;;7.70;;
16878;SDS011;8556;52.218;9.884;2022-10-20T09:13:16;17.30;;;8.20;;
16878;SDS011;8556;52.218;9.884;2022-10-20T09:15:47;15.50;;;8.03;;
16878;SDS011;8556;52.218;9.884;2022-10-20T09:18:16;13.00;;;7.70;;
16878;SDS011;8556;52.218;9.884;2022-10-20T09:20:46;14.43;;;8.33;;
16878;SDS011;8556;52.218;9.884;2022-10-20T09:23:17;19.83;;;8.43;;
16878;SDS011;8556;52.218;9.884;2022-10-20T09:25:48;14.23;;;7.47;;
16878;SDS011;8556;52.218;9.884;2022-10-20T09:28:19;12.70;;;7.50;;
16878;SDS011;8556;52.218;9.884;2022-10-20T09:30:47;11.43;;;7.17;;
16878;SDS011;8556;52.218;9.884;2022-10-20T09:33:21;11.77;;;7.13;;
16878;SDS011;8556;52.218;9.884;2022-10-20T09:35:53;13.17;;;8.17;;
16878;SDS011;8556;52.218;9.884;2022-10-20T09:38:27;13.00;;;8.30;;
16878;SDS011;8556;52.218;9.884;2022-10-20T09:40:57;13.17;;;7.67;;
16878;SDS011;8556;52.218;9.884;2022-10-20T09:43:34;15.07;;;8.40;;
16878;SDS011;8556;52.218;9.884;2022-10-20T09:46:05;13.13;;;7.73;;
16878;SDS011;8556;52.218;9.884;2022-10-20T09:48:33;11.80;;;8.00;;
16878;SDS011;8556;52.218;9.884;2022-10-20T09:51:03;12.10;;;7.00;;
16878;SDS011;8556;52.218;9.884;2022-10-20T09:53:34;14.30;;;7.83;;
16878;SDS011;8556;52.218;9.884;2022-10-20T09:56:04;13.03;;;7.73;;
16878;SDS011;8556;52.218;9.884;2022-10-20T09:58:32;11.13;;;7.63;;
16878;SDS011;8556;52.218;9.884;2022-10-20T10:01:02;11.30;;;6.73;;
16878;SDS011;8556;52.218;9.884;2022-10-20T10:03:36;11.07;;;7.70;;
16878;SDS011;8556;52.218;9.884;2022-10-20T10:06:18;10.77;;;7.07;;
16878;SDS011;8556;52.218;9.884;2022-10-20T10:08:48;13.37;;;7.57;;
16878;SDS011;8556;52.218;9.884;2022-10-20T10:11:15;11.80;;;7.43;;
16878;SDS011;8556;52.218;9.884;2022-10-20T10:13:44;11.90;;;6.83;;
16878;SDS011;8556;52.218;9.884;2022-10-20T10:16:14;11.93;;;7.37;;
16878;SDS011;8556;52.218;9.884;2022-10-20T10:18:44;10.70;;;8.10;;
16878;SDS011;8556;52.218;9.884;2022-10-20T10:21:20;12.70;;;8.00;;
16878;SDS011;8556;52.218;9.884;2022-10-20T10:23:52;12.80;;;7.90;;
16878;SDS011;8556;52.218;9.884;2022-10-20T10:26:34;12.17;;;7.90;;
16878;SDS011;8556;52.218;9.884;2022-10-20T10:29:16;14.83;;;8.27;;
16878;SDS011;8556;52.218;9.884;2022-10-20T10:31:52;13.63;;;8.73;;
16878;SDS011;8556;52.218;9.884;2022-10-20T10:34:26;12.87;;;8.03;;
16878;SDS011;8556;52.218;9.884;2022-10-20T10:37:02;17.77;;;7.47;;
16878;SDS011;8556;52.218;9.884;2022-10-20T10:39:30;11.27;;;7.00;;
16878;SDS011;8556;52.218;9.884;2022-10-20T10:45:11;11.37;;;7.30;;
16878;SDS011;8556;52.218;9.884;2022-10-20T10:50:45;10.33;;;6.77;;
16878;SDS011;8556;52.218;9.884;2022-10-20T10:53:23;10.57;;;7.30;;
16878;SDS011;8556;52.218;9.884;2022-10-20T10:56:02;9.20;;;6.87;;
16878;SDS011;8556;52.218;9.884;2022-10-20T10:58:40;11.30;;;6.30;;
16878;SDS011;8556;52.218;9.884;2022-10-20T11:01:15;10.93;;;6.63;;
16878;SDS011;8556;52.218;9.884;2022-10-20T11:04:01;10.40;;;7.80;;
16878;SDS011;8556;52.218;9.884;2022-10-20T11:06:47;11.47;;;6.87;;
16878;SDS011;8556;52.218;9.884;2022-10-20T11:09:24;12.70;;;7.40;;
16878;SDS011;8556;52.218;9.884;2022-10-20T11:12:03;11.63;;;7.30;;
16878;SDS011;8556;52.218;9.884;2022-10-20T11:14:44;10.23;;;6.60;;
16878;SDS011;8556;52.218;9.884;2022-10-20T11:17:23;9.87;;;6.47;;
16878;SDS011;8556;52.218;9.884;2022-10-20T11:20:18;8.70;;;6.03;;
16878;SDS011;8556;52.218;9.884;2022-10-20T11:22:54;7.33;;;6.30;;
16878;SDS011;8556;52.218;9.884;2022-10-20T11:25:40;11.20;;;6.33;;
16878;SDS011;8556;52.218;9.884;2022-10-20T11:28:20;9.43;;;6.73;;
16878;SDS011;8556;52.218;9.884;2022-10-20T11:30:52;8.23;;;6.30;;
16878;SDS011;8556;52.218;9.884;2022-10-20T11:33:21;10.30;;;6.90;;
16878;SDS011;8556;52.218;9.884;2022-10-20T11:35:53;11.20;;;7.27;;
16878;SDS011;8556;52.218;9.884;2022-10-20T11:38:24;11.10;;;6.80;;
16878;SDS011;8556;52.218;9.884;2022-10-20T11:40:57;9.87;;;5.93;;
16878;SDS011;8556;52.218;9.884;2022-10-20T11:43:30;11.03;;;7.30;;
16878;SDS011;8556;52.218;9.884;2022-10-20T11:46:03;8.63;;;6.20;;
16878;SDS011;8556;52.218;9.884;2022-10-20T11:48:33;8.97;;;6.50;;
16878;SDS011;8556;52.218;9.884;2022-10-20T11:51:12;7.80;;;6.07;;
16878;SDS011;8556;52.218;9.884;2022-10-20T11:56:50;8.27;;;6.20;;
16878;SDS011;8556;52.218;9.884;2022-10-20T11:59:41;8.27;;;6.10;;
16878;SDS011;8556;52.218;9.884;2022-10-20T12:05:44;8.80;;;6.17;;
16878;SDS011;8556;52.218;9.884;2022-10-20T12:08:25;11.37;;;7.60;;
16878;SDS011;8556;52.218;9.884;2022-10-20T12:11:09;12.63;;;7.37;;
16878;SDS011;8556;52.218;9.884;2022-10-20T12:13:44;11.47;;;6.33;;
16878;SDS011;8556;52.218;9.884;2022-10-20T12:19:20;9.30;;;6.33;;
16878;SDS011;8556;52.218;9.884;2022-10-20T12:21:54;9.20;;;7.00;;
16878;SDS011;8556;52.218;9.884;2022-10-20T12:24:29;10.87;;;6.97;;
16878;SDS011;8556;52.218;9.884;2022-10-20T12:27:03;10.30;;;7.50;;
16878;SDS011;8556;52.218;9.884;2022-10-20T12:29:49;10.80;;;6.50;;
16878;SDS011;8556;52.218;9.884;2022-10-20T12:35:29;11.07;;;7.17;;
16878;SDS011;8556;52.218;9.884;2022-10-20T12:38:13;14.07;;;8.30;;
16878;SDS011;8556;52.218;9.884;2022-10-20T12:40:43;8.53;;;6.53;;
16878;SDS011;8556;52.218;9.884;2022-10-20T12:43:21;10.10;;;7.27;;
16878;SDS011;8556;52.218;9.884;2022-10-20T12:45:51;12.93;;;7.17;;
16878;SDS011;8556;52.218;9.884;2022-10-20T12:48:23;10.87;;;7.10;;
16878;SDS011;8556;52.218;9.884;2022-10-20T12:50:52;10.50;;;7.13;;
16878;SDS011;8556;52.218;9.884;2022-10-20T12:53:27;12.38;;;7.00;;
16878;SDS011;8556;52.218;9.884;2022-10-20T12:55:56;10.03;;;6.97;;
16878;SDS011;8556;52.218;9.884;2022-10-20T12:58:26;8.02;;;6.45;;
16878;SDS011;8556;52.218;9.884;2022-10-20T13:00:59;10.77;;;6.35;;
16878;SDS011;8556;52.218;9.884;2022-10-20T13:03:40;9.23;;;5.95;;
16878;SDS011;8556;52.218;9.884;2022-10-20T13:09:10;7.28;;;5.25;;
16878;SDS011;8556;52.218;9.884;2022-10-20T13:11:54;6.03;;;4.90;;
16878;SDS011;8556;52.218;9.884;2022-10-20T13:14:25;6.18;;;5.13;;
16878;SDS011;8556;52.218;9.884;2022-10-20T13:17:00;11.07;;;4.93;;
16878;SDS011;8556;52.218;9.884;2022-10-20T13:19:32;6.75;;;4.97;;
16878;SDS011;8556;52.218;9.884;2022-10-20T13:25:12;6.03;;;5.00;;
16878;SDS011;8556;52.218;9.884;2022-10-20T13:27:46;8.18;;;5.65;;
16878;SDS011;8556;52.218;9.884;2022-10-20T13:30:18;7.15;;;5.25;;
16878;SDS011;8556;52.218;9.884;2022-10-20T13:32:49;8.00;;;4.72;;
16878;SDS011;8556;52.218;9.884;2022-10-20T13:35:26;8.00;;;4.88;;
16878;SDS011;8556;52.218;9.884;2022-10-20T13:37:59;7.18;;;4.68;;
16878;SDS011;8556;52.218;9.884;2022-10-20T13:40:37;6.03;;;4.40;;
16878;SDS011;8556;52.218;9.884;2022-10-20T13:43:13;6.13;;;4.90;;
16878;SDS011;8556;52.218;9.884;2022-10-20T13:45:54;4.93;;;4.18;;
16878;SDS011;8556;52.218;9.884;2022-10-20T13:48:36;6.03;;;4.35;;
16878;SDS011;8556;52.218;9.884;2022-10-20T13:51:12;9.23;;;4.47;;
16878;SDS011;8556;52.218;9.884;2022-10-20T13:53:45;5.63;;;4.20;;
16878;SDS011;8556;52.218;9.884;2022-10-20T13:56:18;8.63;;;4.72;;
16878;SDS011;8556;52.218;9.884;2022-10-20T13:58:56;6.65;;;4.70;;
16878;SDS011;8556;52.218;9.884;2022-10-20T14:01:24;6.07;;;4.22;;
16878;SDS011;8556;52.218;9.884;2022-10-20T14:03:52;7.07;;;4.60;;
16878;SDS011;8556;52.218;9.884;2022-10-20T14:06:29;5.53;;;4.28;;
16878;SDS011;8556;52.218;9.884;2022-10-20T14:09:04;5.97;;;4.87;;
16878;SDS011;8556;52.218;9.884;2022-10-20T14:11:36;7.00;;;4.75;;
16878;SDS011;8556;52.218;9.884;2022-10-20T14:14:03;4.40;;;3.97;;
16878;SDS011;8556;52.218;9.884;2022-10-20T14:16:30;5.57;;;4.00;;
16878;SDS011;8556;52.218;9.884;2022-10-20T14:18:58;5.97;;;3.80;;
16878;SDS011;8556;52.218;9.884;2022-10-20T14:21:26;4.93;;;4.43;;
16878;SDS011;8556;52.218;9.884;2022-10-20T14:23:53;6.22;;;3.80;;
16878;SDS011;8556;52.218;9.884;2022-10-20T14:26:23;5.40;;;3.93;;
16878;SDS011;8556;52.218;9.884;2022-10-20T14:28:50;5.60;;;4.30;;
16878;SDS011;8556;52.218;9.884;2022-10-20T14:31:19;6.05;;;4.05;;
16878;SDS011;8556;52.218;9.884;2022-10-20T14:33:47;8.98;;;4.97;;
16878;SDS011;8556;52.218;9.884;2022-10-20T14:36:17;4.45;;;3.90;;
16878;SDS011;8556;52.218;9.884;2022-10-20T14:38:46;4.03;;;3.60;;
16878;SDS011;8556;52.218;9.884;2022-10-20T14:41:21;8.65;;;4.15;;
16878;SDS011;8556;52.218;9.884;2022-10-20T14:43:52;5.45;;;3.60;;
16878;SDS011;8556;52.218;9.884;2022-10-20T14:46:22;6.25;;;4.10;;
16878;SDS011;8556;52.218;9.884;2022-10-20T14:48:54;6.93;;;4.43;;
16878;SDS011;8556;52.218;9.884;2022-10-20T14:51:29;6.05;;;3.90;;
16878;SDS011;8556;52.218;9.884;2022-10-20T14:54:13;5.87;;;3.93;;
16878;SDS011;8556;52.218;9.884;2022-10-20T14:56:43;7.53;;;4.00;;
16878;SDS011;8556;52.218;9.884;2022-10-20T14:59:12;7.37;;;4.47;;
16878;SDS011;8556;52.218;9.884;2022-10-20T15:01:40;6.10;;;4.37;;
16878;SDS011;8556;52.218;9.884;2022-10-20T15:04:14;16.85;;;5.50;;
16878;SDS011;8556;52.218;9.884;2022-10-20T15:06:42;16.80;;;6.70;;
16878;SDS011;8556;52.218;9.884;2022-10-20T15:09:19;5.70;;;3.70;;
16878;SDS011;8556;52.218;9.884;2022-10-20T15:11:52;4.70;;;3.60;;
16878;SDS011;8556;52.218;9.884;2022-10-20T15:14:19;5.20;;;3.72;;
16878;SDS011;8556;52.218;9.884;2022-10-20T15:16:46;4.50;;;3.90;;
16878;SDS011;8556;52.218;9.884;2022-10-20T15:19:25;5.50;;;4.17;;
16878;SDS011;8556;52.218;9.884;2022-10-20T15:21:59;4.67;;;3.67;;
16878;SDS011;8556;52.218;9.884;2022-10-20T15:24:36;5.07;;;4.00;;
16878;SDS011;8556;52.218;9.884;2022-10-20T15:27:04;7.00;;;3.90;;
16878;SDS011;8556;52.218;9.884;2022-10-20T15:29:37;7.07;;;4.20;;
16878;SDS011;8556;52.218;9.884;2022-10-20T15:32:07;5.13;;;3.60;;
16878;SDS011;8556;52.218;9.884;2022-10-20T15:34:37;4.57;;;4.00;;
16878;SDS011;8556;52.218;9.884;2022-10-20T15:37:07;5.10;;;3.70;;
16878;SDS011;8556;52.218;9.884;2022-10-20T15:39:36;5.67;;;3.90;;
16878;SDS011;8556;52.218;9.884;2022-10-20T15:42:08;5.60;;;3.93;;